Terminal Aerodrome Forecast
Issued by NWS Lake Charles, LA

Home | Current Version | Previous Version | Text Only | Print | Product List | Glossary On
Versions: 1 2 3 4 5 6 7 8 9 10 11 12 13 14 15 16
000
FTUS44 KLCH 290500
TAFARA
TAF
KARA 290523Z 2906/3006 02005KT P6SM OVC006
     FM291000 02004KT 4SM BR OVC003
      TEMPO 2911/2914 2SM BR
     FM291500 36005KT P6SM OVC005
     FM291900 34005KT P6SM BKN008
     FM300100 36004KT P6SM SCT012=

USA.gov is the U.S. government's official web portal to all federal, state and local government web resources and services.